createdAt,value
2022-12-11T00:06:06.079Z,17.93
2022-12-11T00:08:54.809Z,18.90
2022-12-11T00:14:28.575Z,21.60
2022-12-11T00:17:16.970Z,29.13
2022-12-11T00:20:06.278Z,29.00
2022-12-11T00:25:44.782Z,30.47
2022-12-11T00:31:21.648Z,32.40
2022-12-11T00:34:10.017Z,28.87
2022-12-11T00:39:56.197Z,28.37
2022-12-11T00:45:45.329Z,27.20
2022-12-11T00:51:17.038Z,26.77
2022-12-11T00:54:06.513Z,23.03
2022-12-11T00:59:37.305Z,24.23
2022-12-11T01:05:13.805Z,22.70
2022-12-11T01:10:47.023Z,24.83
2022-12-11T01:16:24.119Z,19.77
2022-12-11T01:21:55.470Z,23.47
2022-12-11T01:24:44.642Z,19.07
2022-12-11T01:27:32.892Z,21.90
2022-12-11T01:33:03.968Z,21.23
2022-12-11T01:38:35.936Z,23.03
2022-12-11T01:44:31.634Z,24.63
2022-12-11T01:50:11.713Z,24.73
2022-12-11T01:52:59.932Z,23.57
2022-12-11T01:55:50.217Z,26.37
2022-12-11T02:01:26.656Z,23.17
2022-12-11T02:06:55.835Z,24.43
2022-12-11T02:09:47.303Z,21.53
2022-12-11T02:15:30.109Z,22.13
2022-12-11T02:21:15.418Z,22.00
2022-12-11T02:24:41.153Z,21.87
2022-12-11T02:27:58.124Z,24.87
2022-12-11T02:36:27.556Z,22.07
2022-12-11T02:39:18.260Z,20.70
2022-12-11T02:44:54.530Z,20.23
2022-12-11T02:50:31.498Z,22.67
2022-12-11T02:56:12.320Z,21.93
2022-12-11T03:07:15.118Z,26.37
2022-12-11T03:10:05.009Z,22.80
2022-12-11T03:12:55.981Z,22.53
2022-12-11T03:18:30.659Z,23.77
2022-12-11T03:24:07.811Z,26.47
2022-12-11T03:27:00.983Z,26.00
2022-12-11T03:32:38.470Z,29.43
2022-12-11T03:35:29.169Z,27.43
2022-12-11T03:38:20.447Z,26.53
2022-12-11T03:41:09.888Z,28.30
2022-12-11T03:46:41.316Z,29.57
2022-12-11T03:52:28.599Z,30.90
2022-12-11T03:55:18.247Z,28.70
2022-12-11T03:58:06.921Z,29.47
2022-12-11T04:03:43.844Z,28.17
2022-12-11T04:09:23.383Z,31.10
2022-12-11T04:12:13.789Z,32.47
2022-12-11T04:15:02.957Z,27.30
2022-12-11T04:18:09.516Z,26.93
2022-12-11T04:24:04.493Z,25.03
2022-12-11T04:29:41.433Z,25.63
2022-12-11T04:35:18.658Z,22.27
2022-12-11T04:38:08.486Z,21.63
2022-12-11T04:43:50.270Z,23.60
2022-12-11T04:49:20.407Z,21.83
2022-12-11T04:52:11.741Z,23.63
2022-12-11T04:57:48.453Z,22.53
2022-12-11T05:03:31.047Z,23.67
2022-12-11T05:09:04.945Z,24.53
2022-12-11T05:17:19.555Z,25.30
2022-12-11T05:20:10.440Z,25.60
2022-12-11T05:22:59.910Z,26.07
2022-12-11T05:28:43.828Z,25.60
2022-12-11T05:34:11.220Z,24.63
2022-12-11T05:36:59.632Z,27.97
2022-12-11T05:39:49.087Z,25.43
2022-12-11T05:45:19.123Z,24.80
2022-12-11T05:48:08.997Z,26.03
2022-12-11T05:54:00.438Z,24.50
2022-12-11T05:59:32.299Z,22.23
2022-12-11T06:05:06.916Z,21.53
2022-12-11T06:10:46.878Z,20.23
2022-12-11T06:16:24.622Z,22.97
2022-12-11T06:22:03.141Z,22.27
2022-12-11T06:30:38.910Z,19.67
2022-12-11T06:33:18.814Z,19.97
2022-12-11T06:38:50.931Z,19.00
2022-12-11T06:41:39.059Z,23.87
2022-12-11T06:47:10.865Z,20.30
2022-12-11T07:17:04.089Z,20.87
2022-12-11T07:22:48.537Z,19.50
2022-12-11T07:25:39.590Z,19.90
2022-12-11T07:28:28.301Z,25.70
2022-12-11T07:34:07.287Z,24.30
2022-12-11T07:39:44.585Z,25.30
2022-12-11T07:42:32.970Z,31.27
2022-12-11T07:45:25.558Z,25.97
2022-12-11T07:51:29.662Z,26.07
2022-12-11T07:54:20.932Z,25.57
2022-12-11T07:59:49.810Z,25.07
2022-12-11T08:03:00.065Z,23.00
2022-12-11T08:11:32.103Z,23.40
2022-12-11T08:14:20.872Z,23.47
2022-12-11T08:19:51.856Z,24.03
2022-12-11T08:25:42.055Z,24.87
2022-12-11T08:31:20.490Z,29.03
2022-12-11T08:36:54.620Z,28.07
2022-12-11T08:45:20.828Z,28.60
2022-12-11T08:48:09.587Z,27.33
2022-12-11T08:53:51.799Z,25.17
2022-12-11T08:59:30.232Z,22.50
2022-12-11T09:05:16.341Z,22.00
2022-12-11T09:13:55.824Z,24.60
2022-12-11T09:19:32.399Z,25.37
2022-12-11T09:25:09.987Z,23.70
2022-12-11T09:28:01.804Z,22.57
2022-12-11T09:34:13.534Z,21.43
2022-12-11T09:37:00.540Z,22.93
2022-12-11T09:39:51.511Z,20.33
2022-12-11T09:42:50.332Z,20.87
2022-12-11T09:45:41.046Z,19.33
2022-12-11T09:51:23.579Z,21.27
2022-12-11T09:57:19.635Z,21.03
2022-12-11T10:03:32.979Z,21.43
2022-12-11T10:09:16.616Z,21.43
2022-12-11T10:15:19.232Z,23.93
2022-12-11T10:23:45.285Z,19.97
2022-12-11T10:29:20.873Z,21.27
2022-12-11T10:32:14.463Z,19.23
2022-12-11T10:37:49.878Z,19.13
2022-12-11T10:43:47.273Z,21.20
2022-12-11T10:49:27.804Z,18.23
2022-12-11T10:55:01.482Z,15.10
2022-12-11T11:00:41.269Z,15.60
2022-12-11T11:09:04.452Z,17.30
2022-12-11T11:14:34.458Z,18.23
2022-12-11T11:20:28.330Z,20.37
2022-12-11T11:28:52.099Z,22.93
2022-12-11T11:34:30.903Z,20.37
2022-12-11T11:43:07.618Z,18.17
2022-12-11T11:48:47.209Z,19.23
2022-12-11T11:54:26.689Z,19.10
2022-12-11T12:00:09.014Z,21.83
2022-12-11T12:06:14.907Z,20.53
2022-12-11T12:09:04.220Z,23.00
2022-12-11T12:14:55.881Z,23.50
2022-12-11T12:18:05.850Z,22.30
2022-12-11T12:23:54.089Z,24.33
2022-12-11T12:29:31.787Z,20.83
2022-12-11T12:35:13.037Z,24.77
2022-12-11T12:40:57.648Z,23.70
2022-12-11T12:47:17.339Z,26.63
2022-12-11T12:50:20.463Z,26.87
2022-12-11T12:53:13.906Z,27.67
2022-12-11T12:59:02.766Z,27.53
2022-12-11T13:01:55.293Z,26.77
2022-12-11T13:04:56.130Z,26.00
2022-12-11T13:07:36.815Z,30.37
2022-12-11T13:13:37.603Z,22.80
2022-12-11T13:19:29.899Z,22.77
2022-12-11T13:22:25.354Z,21.77
2022-12-11T13:28:34.008Z,28.17
2022-12-11T13:34:39.933Z,25.50
2022-12-11T13:37:35.219Z,30.07
2022-12-11T13:40:25.707Z,27.00
2022-12-11T13:43:20.568Z,26.27
2022-12-11T13:48:57.318Z,27.40
2022-12-11T13:54:51.048Z,28.63
2022-12-11T14:00:30.513Z,28.00
2022-12-11T14:06:21.038Z,29.23
2022-12-11T14:09:10.406Z,29.83
2022-12-11T14:12:00.377Z,26.90
2022-12-11T14:14:51.988Z,26.93
2022-12-11T14:20:48.646Z,28.93
2022-12-11T14:26:51.594Z,28.20
2022-12-11T14:32:33.590Z,27.33
2022-12-11T14:35:40.900Z,26.77
2022-12-11T14:38:31.708Z,27.40
2022-12-11T14:44:00.287Z,28.43
2022-12-11T14:55:22.800Z,27.00
2022-12-11T15:01:08.087Z,26.40
2022-12-11T15:06:48.992Z,23.73
2022-12-11T15:12:35.227Z,25.57
2022-12-11T15:24:06.645Z,27.40
2022-12-11T15:27:01.960Z,30.07
2022-12-11T15:33:23.889Z,26.50
2022-12-11T15:36:46.565Z,22.73
2022-12-11T15:43:04.117Z,26.27
2022-12-11T15:46:18.356Z,24.60
2022-12-11T15:52:02.527Z,26.23
2022-12-11T15:54:52.825Z,28.57
2022-12-11T16:00:28.882Z,26.10
2022-12-11T16:06:22.818Z,28.73
2022-12-11T16:09:12.234Z,27.57
2022-12-11T16:14:50.475Z,25.30
2022-12-11T16:20:48.576Z,27.40
2022-12-11T16:26:29.459Z,27.53
2022-12-11T16:29:20.283Z,29.03
2022-12-11T16:34:55.402Z,25.03
2022-12-11T16:40:27.981Z,23.17
2022-12-11T16:45:58.800Z,29.17
2022-12-11T16:51:28.395Z,25.93
2022-12-11T16:54:17.409Z,25.37
2022-12-11T16:59:47.950Z,26.83
2022-12-11T17:05:21.177Z,25.43
2022-12-11T17:10:58.375Z,27.80
2022-12-11T17:13:46.590Z,27.60
2022-12-11T17:19:18.088Z,28.33
2022-12-11T17:22:12.963Z,28.90
2022-12-11T17:25:01.243Z,30.47
2022-12-11T17:27:52.015Z,31.13
2022-12-11T17:30:43.391Z,30.80
2022-12-11T17:36:21.415Z,37.60
2022-12-11T17:41:53.746Z,29.87
2022-12-11T17:47:24.342Z,38.07
2022-12-11T17:53:00.643Z,32.37
2022-12-11T18:04:14.353Z,34.43
2022-12-11T18:09:49.237Z,35.67
2022-12-11T18:12:38.386Z,35.73
2022-12-11T18:21:38.882Z,36.87
2022-12-11T18:27:15.019Z,39.37
2022-12-11T18:32:55.136Z,36.50
2022-12-11T18:38:33.214Z,36.50
2022-12-11T18:44:16.225Z,34.90
2022-12-11T18:49:45.530Z,37.60
2022-12-11T18:55:13.507Z,33.37
2022-12-11T18:58:03.750Z,35.67
2022-12-11T19:03:43.362Z,37.20
2022-12-11T19:06:31.917Z,33.63
2022-12-11T19:09:20.849Z,33.50
2022-12-11T19:17:43.187Z,38.93
2022-12-11T19:23:13.983Z,37.50
2022-12-11T19:28:45.505Z,38.10
2022-12-11T19:34:19.968Z,41.73
2022-12-11T19:39:57.280Z,35.37
2022-12-11T19:42:45.673Z,36.97
2022-12-11T19:48:19.986Z,41.40
2022-12-11T19:53:52.174Z,44.40
2022-12-11T19:59:37.267Z,36.97
2022-12-11T20:02:26.948Z,37.07
2022-12-11T20:05:16.334Z,40.93
2022-12-11T20:08:42.338Z,38.77
2022-12-11T20:13:49.477Z,37.90
2022-12-11T20:19:29.538Z,42.40
2022-12-11T20:25:03.608Z,41.27
2022-12-11T20:31:29.148Z,37.70
2022-12-11T20:34:18.278Z,40.03
2022-12-11T20:53:53.716Z,49.07
2022-12-11T20:56:46.969Z,45.47
2022-12-11T21:02:24.295Z,50.60
2022-12-11T21:05:12.859Z,49.97
2022-12-11T21:10:52.440Z,48.70
2022-12-11T21:19:30.100Z,48.33
2022-12-11T21:25:17.494Z,46.90
2022-12-11T21:28:06.317Z,44.53
2022-12-11T21:33:41.291Z,48.23
2022-12-11T21:39:19.476Z,40.33
2022-12-11T21:47:27.608Z,45.20
2022-12-11T21:53:03.615Z,43.87
2022-12-11T21:58:41.991Z,42.37
2022-12-11T22:04:14.150Z,44.00
2022-12-11T22:07:02.562Z,40.13
2022-12-11T22:15:27.983Z,41.63
2022-12-11T22:21:05.795Z,42.10
2022-12-11T22:23:54.255Z,40.97
2022-12-11T22:29:20.979Z,45.50
2022-12-11T22:32:10.135Z,44.63
2022-12-11T22:34:58.880Z,43.13
2022-12-11T22:40:48.175Z,42.17
2022-12-11T22:43:36.626Z,41.27
2022-12-11T22:52:00.864Z,44.27
2022-12-11T22:57:32.500Z,41.33
2022-12-11T23:03:02.253Z,40.53
2022-12-11T23:08:38.310Z,42.20
2022-12-11T23:14:17.552Z,44.93
2022-12-11T23:20:11.852Z,39.87
2022-12-11T23:25:48.705Z,39.00
2022-12-11T23:28:37.723Z,40.07
2022-12-11T23:34:14.176Z,41.40
2022-12-11T23:37:03.779Z,43.40
2022-12-11T23:42:41.292Z,41.30
2022-12-11T23:48:13.520Z,42.60
2022-12-11T23:51:05.658Z,41.50
2022-12-11T23:53:53.822Z,38.77
2022-12-11T23:59:28.941Z,35.70
